Time;durP1;ratioP1;P1;durP2;ratioP2;P2;SDS_P1;SDS_P2;PMS_P1;PMS_P2;Temp;Humidity;BMP_temperature;BMP_pressure;BME280_temperature;BME280_humidity;BME280_pressure;Samples;Min_cycle;Max_cycle;Signal;HPM_P1;HPM_P2
2023/04/10 00:00:05;;;;;;;48.25;36.45;;;;;;;5.65;100.00;162044.19;5069911;28;20040;-61
2023/04/10 00:02:31;;;;;;;54.78;35.80;;;;;;;5.70;100.00;162056.31;5070923;28;20503;-61
2023/04/10 00:04:56;;;;;;;49.63;35.05;;;;;;;5.79;100.00;162079.16;5069807;28;20044;-61
2023/04/10 00:07:22;;;;;;;49.13;38.42;;;;;;;5.82;100.00;162087.25;5071408;28;20475;-61
2023/04/10 00:09:47;;;;;;;52.03;34.85;;;;;;;5.85;100.00;162095.31;5069609;28;20044;-61
2023/04/10 00:12:14;;;;;;;49.88;36.25;;;;;;;5.87;100.00;162102.06;5070851;28;20061;-61
2023/04/10 00:14:39;;;;;;;49.83;38.50;;;;;;;5.89;100.00;162106.09;5069900;28;20090;-61
2023/04/10 00:17:05;;;;;;;47.75;36.50;;;;;;;5.94;100.00;162119.53;5070680;28;20032;-61
2023/04/10 00:19:30;;;;;;;43.92;32.78;;;;;;;5.93;100.00;162115.53;5069484;28;20036;-61
2023/04/10 00:21:56;;;;;;;49.92;34.88;;;;;;;6.01;100.00;162137.09;5070952;28;20066;-61
2023/04/10 00:24:21;;;;;;;52.70;36.00;;;;;;;6.09;100.00;162157.28;5069203;28;20044;-61
2023/04/10 00:26:47;;;;;;;47.45;34.90;;;;;;;6.12;100.00;162165.38;5071425;28;20055;-61
2023/04/10 00:29:13;;;;;;;45.03;33.30;;;;;;;6.11;100.00;162164.00;5069462;28;20021;-61
2023/04/10 00:31:38;;;;;;;51.38;36.72;;;;;;;6.13;100.00;162168.06;5070291;28;20020;-60
2023/04/10 00:34:03;;;;;;;49.45;36.67;;;;;;;6.16;100.00;162176.13;5069135;28;20032;-61
2023/04/10 00:36:30;;;;;;;58.17;38.28;;;;;;;6.00;100.00;162134.41;5070932;28;20474;-60
2023/04/10 00:38:55;;;;;;;45.53;30.70;;;;;;;6.30;100.00;162213.78;5070057;28;20036;-60
2023/04/10 00:41:22;;;;;;;46.55;31.73;;;;;;;6.34;100.00;162224.59;5069346;28;20037;-60
2023/04/10 00:43:48;;;;;;;47.45;32.53;;;;;;;6.42;100.00;162243.44;5071105;28;20024;-62
2023/04/10 00:46:13;;;;;;;38.17;30.80;;;;;;;6.44;100.00;162248.84;5068292;28;20037;-62
2023/04/10 00:48:39;;;;;;;39.17;29.75;;;;;;;6.53;100.00;162273.03;5070881;28;20412;-62
2023/04/10 00:51:05;;;;;;;39.25;29.00;;;;;;;6.55;100.00;162278.44;5069263;28;20066;-61
2023/04/10 00:53:31;;;;;;;39.78;31.88;;;;;;;6.63;100.00;162299.97;5070414;28;20544;-62
2023/04/10 00:55:57;;;;;;;42.53;28.52;;;;;;;6.63;100.00;162299.97;5069166;28;20086;-63
2023/04/10 00:58:23;;;;;;;37.33;28.02;;;;;;;6.59;100.00;162289.19;5070650;28;20028;-62
2023/04/10 01:00:48;;;;;;;39.58;30.08;;;;;;;6.61;100.00;162294.56;5067431;28;20045;-62
2023/04/10 01:03:16;;;;;;;42.47;27.67;;;;;;;6.59;100.00;162289.19;5070532;28;20559;-62
2023/04/10 01:05:52;;;;;;;44.70;31.07;;;;;;;6.65;100.00;162305.38;5069025;28;20097;-61
2023/04/10 01:08:38;;;;;;;44.72;32.47;;;;;;;6.69;100.00;162313.44;5070289;28;20039;-61
2023/04/10 01:11:12;;;;;;;43.67;31.65;;;;;;;6.76;100.00;162332.28;5068681;28;20445;-62
2023/04/10 01:13:57;;;;;;;47.38;33.97;;;;;;;6.84;100.00;162353.81;5070342;28;20035;-63
2023/04/10 01:16:35;;;;;;;41.72;29.48;;;;;;;6.87;100.00;162361.91;5068546;28;20119;-62
2023/04/10 01:19:11;;;;;;;47.28;32.25;;;;;;;6.92;100.00;162374.03;5068932;28;20036;-60
2023/04/10 01:21:37;;;;;;;41.20;28.30;;;;;;;6.89;100.00;162365.94;5070483;28;20037;-63
2023/04/10 01:24:21;;;;;;;43.35;30.40;;;;;;;6.88;100.00;162364.63;5068476;28;20040;-60
2023/04/10 01:27:11;;;;;;;49.38;30.58;;;;;;;6.85;100.00;162355.19;5070376;28;20017;-60
2023/04/10 01:29:40;;;;;;;45.05;28.50;;;;;;;6.86;100.00;162359.22;5068945;28;20076;-60
2023/04/10 01:32:13;;;;;;;45.55;32.15;;;;;;;6.89;100.00;162365.94;5069949;28;20023;-61
2023/04/10 01:34:49;;;;;;;49.67;34.05;;;;;;;6.88;100.00;162364.63;5068906;28;20530;-61
2023/04/10 01:37:23;;;;;;;45.83;32.50;;;;;;;6.84;100.00;162353.81;5070012;28;20035;-60
2023/04/10 01:39:53;;;;;;;46.25;36.90;;;;;;;6.81;100.00;162345.78;5068947;28;20040;-61
2023/04/10 01:42:21;;;;;;;40.53;30.50;;;;;;;6.81;100.00;162345.78;5070377;28;20025;-61
2023/04/10 01:44:49;;;;;;;49.20;31.67;;;;;;;6.82;100.00;162348.41;5068494;28;20891;-61
2023/04/10 01:47:17;;;;;;;44.28;33.92;;;;;;;6.82;100.00;162348.41;5070376;28;20429;-63
2023/04/10 01:49:45;;;;;;;38.73;29.37;;;;;;;6.81;100.00;162345.78;5070724;28;20045;-61
2023/04/10 01:52:13;;;;;;;49.22;32.00;;;;;;;6.78;100.00;162339.00;5073227;28;20447;-60
2023/04/10 01:54:38;;;;;;;41.67;30.48;;;;;;;6.78;100.00;162337.66;5072392;28;20569;-61
2023/04/10 01:57:04;;;;;;;46.30;34.03;;;;;;;6.73;100.00;162324.22;5073590;28;20033;-60
2023/04/10 01:59:30;;;;;;;42.65;30.30;;;;;;;6.67;100.00;162310.72;5071961;28;20422;-60
2023/04/10 02:01:56;;;;;;;53.90;36.00;;;;;;;6.67;100.00;162310.72;5073332;28;20028;-60
2023/04/10 02:04:22;;;;;;;37.40;31.55;;;;;;;6.64;100.00;162302.69;5072490;28;20128;-61
2023/04/10 02:07:00;;;;;;;44.55;31.65;;;;;;;6.67;100.00;162309.41;5072025;28;20029;-60
2023/04/10 02:09:49;;;;;;;37.25;29.17;;;;;;;6.65;100.00;162304.00;5072464;28;20044;-61
2023/04/10 02:12:30;;;;;;;40.47;28.75;;;;;;;6.62;100.00;162297.28;5074018;28;20020;-61
2023/04/10 02:15:00;;;;;;;46.30;32.25;;;;;;;6.62;100.00;162297.28;5071520;28;20040;-59
2023/04/10 02:17:27;;;;;;;44.80;30.70;;;;;;;6.53;100.00;162273.03;5073572;28;20024;-60
2023/04/10 02:19:58;;;;;;;50.08;34.78;;;;;;;6.71;100.00;162318.81;5071804;28;20036;-60
2023/04/10 02:22:25;;;;;;;43.40;30.00;;;;;;;6.72;100.00;162322.84;5073145;28;20036;-59
2023/04/10 02:24:52;;;;;;;37.72;29.23;;;;;;;6.73;100.00;162325.53;5071659;28;20249;-59
2023/04/10 02:27:27;;;;;;;40.90;31.13;;;;;;;6.66;100.00;162308.03;5073140;28;20035;-59
2023/04/10 02:29:53;;;;;;;36.80;28.95;;;;;;;6.65;100.00;162305.38;5071266;28;20487;-59
2023/04/10 02:32:18;;;;;;;48.63;34.10;;;;;;;6.69;100.00;162313.44;5073507;28;20027;-59
2023/04/10 02:34:43;;;;;;;42.92;31.15;;;;;;;6.61;100.00;162294.56;5071765;28;20037;-59
2023/04/10 02:37:09;;;;;;;39.53;31.92;;;;;;;6.56;100.00;162279.75;5072576;28;20394;-59
2023/04/10 02:39:35;;;;;;;41.60;30.75;;;;;;;6.57;100.00;162283.81;5071303;28;20040;-60
2023/04/10 02:42:01;;;;;;;42.80;32.10;;;;;;;6.43;100.00;162246.13;5072694;28;20038;-58
2023/04/10 02:44:26;;;;;;;38.65;29.67;;;;;;;6.55;100.00;162278.44;5071416;28;20033;-59
2023/04/10 02:46:51;;;;;;;39.58;30.15;;;;;;;6.53;100.00;162273.03;5072813;28;20507;-58
2023/04/10 02:49:17;;;;;;;46.83;31.55;;;;;;;6.49;100.00;162263.59;5071340;28;20017;-59
2023/04/10 02:51:42;;;;;;;37.33;28.90;;;;;;;6.46;100.00;162254.19;5072743;28;20040;-58
2023/04/10 02:54:07;;;;;;;41.28;29.42;;;;;;;6.49;100.00;162263.59;5071110;28;20025;-58
2023/04/10 02:56:33;;;;;;;41.92;30.25;;;;;;;6.48;100.00;162259.59;5072854;28;20032;-59
2023/04/10 02:58:59;;;;;;;45.08;31.92;;;;;;;6.45;100.00;162251.47;5072236;28;20436;-60
2023/04/10 03:01:25;;;;;;;41.47;29.88;;;;;;;6.41;100.00;162240.75;5069993;28;20090;-59
2023/04/10 03:03:50;;;;;;;47.85;31.30;;;;;;;6.21;100.00;162189.59;5072445;28;20390;-59
2023/04/10 03:06:16;;;;;;;42.38;32.85;;;;;;;6.42;100.00;162243.44;5070939;28;20048;-59
2023/04/10 03:08:41;;;;;;;45.20;31.55;;;;;;;6.38;100.00;162232.63;5072598;28;20021;-60
2023/04/10 03:11:08;;;;;;;46.53;31.08;;;;;;;6.37;100.00;162230.00;5070883;28;20044;-59
2023/04/10 03:13:33;;;;;;;51.05;35.42;;;;;;;6.19;100.00;162184.22;5072128;28;20024;-59
2023/04/10 03:15:58;;;;;;;43.03;30.10;;;;;;;6.34;100.00;162224.59;5070882;28;20531;-59
2023/04/10 03:18:24;;;;;;;44.63;32.45;;;;;;;6.31;100.00;162216.50;5072278;28;20012;-60
2023/04/10 03:20:49;;;;;;;43.42;30.40;;;;;;;6.27;100.00;162205.75;5070066;28;20067;-59
2023/04/10 03:23:15;;;;;;;38.95;30.83;;;;;;;6.25;100.00;162199.03;5072418;28;20025;-61
2023/04/10 03:25:40;;;;;;;41.03;30.20;;;;;;;6.21;100.00;162189.59;5070718;28;20123;-60
2023/04/10 03:28:06;;;;;;;43.90;34.45;;;;;;;6.19;100.00;162184.22;5071755;28;20071;-60
2023/04/10 03:30:33;;;;;;;74.80;34.35;;;;;;;6.02;100.00;162141.13;5070847;28;20043;-60
2023/04/10 03:32:59;;;;;;;51.13;34.17;;;;;;;6.09;100.00;162157.28;5071890;28;20025;-60
2023/04/10 03:35:24;;;;;;;40.85;31.35;;;;;;;6.03;100.00;162142.50;5070421;28;20586;-61
2023/04/10 03:37:50;;;;;;;47.72;35.40;;;;;;;5.97;100.00;162127.63;5071430;28;20082;-60
2023/04/10 03:40:15;;;;;;;47.20;36.03;;;;;;;5.90;100.00;162108.81;5070408;28;20063;-60
2023/04/10 03:42:40;;;;;;;53.55;38.35;;;;;;;5.82;100.00;162088.59;5071781;28;20036;-59
2023/04/10 03:45:06;;;;;;;45.92;33.80;;;;;;;5.75;100.00;162069.75;5069985;28;20032;-60
2023/04/10 03:47:33;;;;;;;61.63;38.35;;;;;;;5.68;100.00;162052.28;5071792;28;20024;-60
2023/04/10 03:49:58;;;;;;;41.92;30.70;;;;;;;5.64;100.00;162041.50;5070142;28;20144;-61
2023/04/10 03:52:24;;;;;;;49.83;35.42;;;;;;;5.63;100.00;162038.81;5071233;28;20029;-61
2023/04/10 03:54:50;;;;;;;50.50;33.78;;;;;;;5.56;100.00;162019.97;5069870;28;20036;-61
2023/04/10 03:57:17;;;;;;;46.60;33.60;;;;;;;5.31;100.00;161955.44;5071685;28;20021;-61
2023/04/10 03:59:42;;;;;;;44.75;33.80;;;;;;;5.56;100.00;162019.97;5069850;28;20043;-61
2023/04/10 04:02:08;;;;;;;58.67;37.08;;;;;;;5.52;100.00;162009.22;5071433;28;20025;-61
2023/04/10 04:04:33;;;;;;;45.78;34.65;;;;;;;5.48;100.00;161998.44;5070189;28;20032;-61
2023/04/10 04:06:58;;;;;;;48.13;35.63;;;;;;;5.43;100.00;161985.00;5070513;28;20043;-61
2023/04/10 04:09:24;;;;;;;48.25;33.35;;;;;;;5.44;100.00;161987.69;5069914;28;20043;-60
2023/04/10 04:11:49;;;;;;;52.42;40.17;;;;;;;5.43;100.00;161985.00;5071114;28;20020;-60
2023/04/10 04:14:15;;;;;;;45.75;33.58;;;;;;;5.39;100.00;161976.97;5069566;28;20365;-60
2023/04/10 04:16:41;;;;;;;54.38;34.60;;;;;;;5.33;100.00;161960.78;5071361;28;20059;-61
2023/04/10 04:19:06;;;;;;;48.13;33.95;;;;;;;5.32;100.00;161958.13;5069226;28;20020;-60
2023/04/10 04:21:31;;;;;;;58.33;38.45;;;;;;;5.30;100.00;161952.72;5070760;28;20507;-61
2023/04/10 04:23:57;;;;;;;50.72;33.75;;;;;;;5.30;100.00;161952.72;5070976;28;20024;-61
2023/04/10 04:26:23;;;;;;;50.97;38.75;;;;;;;5.14;100.00;161909.69;5069652;28;20069;-61
2023/04/10 04:28:49;;;;;;;44.58;33.67;;;;;;;5.21;100.00;161928.50;5070426;28;20104;-59
2023/04/10 04:31:15;;;;;;;54.03;36.95;;;;;;;5.28;100.00;161946.00;5068565;28;20040;-59
2023/04/10 04:33:40;;;;;;;55.00;40.17;;;;;;;5.25;100.00;161939.25;5070797;28;20024;-59
2023/04/10 04:36:06;;;;;;;51.20;36.92;;;;;;;5.29;100.00;161950.03;5068925;28;20533;-60
2023/04/10 04:38:31;;;;;;;56.35;39.03;;;;;;;5.26;100.00;161941.94;5070465;28;20489;-58
2023/04/10 04:40:57;;;;;;;51.90;34.08;;;;;;;5.29;100.00;161948.72;5066918;28;20032;-59
2023/04/10 04:43:22;;;;;;;49.83;37.90;;;;;;;5.25;100.00;161939.25;5068338;28;20032;-59
2023/04/10 04:45:47;;;;;;;49.28;34.45;;;;;;;5.24;100.00;161936.59;5069225;28;20044;-61
2023/04/10 04:48:13;;;;;;;56.15;37.47;;;;;;;5.27;100.00;161944.66;5070077;28;20612;-61
2023/04/10 04:50:41;;;;;;;50.35;38.00;;;;;;;5.19;100.00;161923.13;5066549;28;20407;-61
2023/04/10 04:53:09;;;;;;;64.85;41.05;;;;;;;5.17;100.00;161919.09;5070021;28;20070;-61
2023/04/10 04:55:35;;;;;;;;;;;;;;;5.22;100.00;161931.19;5069629;28;20380;-61
2023/04/10 04:58:00;;;;;;;54.88;39.20;;;;;;;5.21;100.00;161929.81;5067873;28;19916;-61
2023/04/10 05:00:25;;;;;;;58.85;41.15;;;;;;;5.30;100.00;161952.72;5068746;28;20044;-61
2023/04/10 05:02:51;;;;;;;60.63;39.58;;;;;;;5.38;100.00;161972.88;5069880;28;20536;-61
2023/04/10 05:05:16;;;;;;;59.00;42.53;;;;;;;5.40;100.00;161979.59;5056521;28;20037;-61
2023/04/10 05:07:42;;;;;;;62.00;39.28;;;;;;;5.40;100.00;161979.59;5050180;28;20500;-61
2023/04/10 05:10:07;;;;;;;56.72;40.53;;;;;;;5.53;100.00;162011.94;5048601;28;20099;-62
2023/04/10 05:12:33;;;;;;;50.60;35.10;;;;;;;5.60;100.00;162030.75;5066267;28;20459;-62
2023/04/10 05:14:58;;;;;;;56.97;39.85;;;;;;;5.66;100.00;162046.91;5068453;28;20041;-62
2023/04/10 05:17:24;;;;;;;55.60;40.97;;;;;;;5.68;100.00;162052.28;5070042;28;20077;-61
2023/04/10 05:19:49;;;;;;;57.75;40.40;;;;;;;5.70;100.00;162057.63;5066373;28;20033;-62
2023/04/10 05:22:15;;;;;;;52.75;37.20;;;;;;;5.78;100.00;162076.47;5069758;28;20036;-62
2023/04/10 05:24:40;;;;;;;55.70;37.60;;;;;;;5.85;100.00;162095.31;5070870;28;20052;-62
2023/04/10 05:27:05;;;;;;;57.58;36.40;;;;;;;5.91;100.00;162111.50;5072655;28;20020;-62
2023/04/10 05:29:31;;;;;;;45.20;32.40;;;;;;;5.97;100.00;162127.63;5072579;28;20040;-62
2023/04/10 05:31:56;;;;;;;52.63;31.55;;;;;;;6.08;100.00;162155.94;5073869;28;20024;-62
2023/04/10 05:34:22;;;;;;;47.95;35.00;;;;;;;6.16;100.00;162176.13;5071136;28;20039;-62
2023/04/10 05:36:47;;;;;;;43.65;31.25;;;;;;;6.27;100.00;162205.75;5073498;28;20074;-62
2023/04/10 05:39:12;;;;;;;45.55;31.73;;;;;;;6.37;100.00;162230.00;5072098;28;20380;-62
2023/04/10 05:41:38;;;;;;;46.70;31.10;;;;;;;6.37;100.00;162230.00;5072460;28;20360;-61
2023/04/10 05:44:03;;;;;;;40.45;29.38;;;;;;;6.65;100.00;162305.38;5071592;28;20024;-61
2023/04/10 05:46:28;;;;;;;45.78;34.30;;;;;;;6.79;100.00;162341.69;5073410;28;20020;-60
2023/04/10 05:48:54;;;;;;;41.22;30.80;;;;;;;6.93;100.00;162376.69;5071697;28;20417;-60
2023/04/10 05:51:19;;;;;;;37.95;29.40;;;;;;;7.04;100.00;162406.34;5072104;28;20040;-60
2023/04/10 05:53:44;;;;;;;38.30;27.05;;;;;;;7.22;100.00;162453.47;5073482;28;20025;-60
2023/04/10 05:56:10;;;;;;;40.05;28.67;;;;;;;7.38;100.00;162495.22;5070320;28;20052;-60
2023/04/10 05:58:35;;;;;;;37.58;27.27;;;;;;;7.53;100.00;162534.31;5072469;28;20025;-60
2023/04/10 06:01:01;;;;;;;34.28;26.20;;;;;;;7.63;100.00;162561.22;5070105;28;20136;-59
2023/04/10 06:03:26;;;;;;;41.10;28.35;;;;;;;7.85;100.00;162616.47;5072284;28;20071;-59
2023/04/10 06:05:52;;;;;;;34.25;26.67;;;;;;;7.96;100.00;162644.78;5071115;28;20610;-59
2023/04/10 06:08:18;;;;;;;31.88;23.73;;;;;;;8.09;100.00;162681.19;5073084;28;20021;-59
2023/04/10 06:10:45;;;;;;;33.28;24.92;;;;;;;8.17;100.00;162701.38;5071803;28;20036;-58
2023/04/10 06:13:10;;;;;;;29.13;23.10;;;;;;;8.25;100.00;162722.94;5072142;28;20025;-59
2023/04/10 06:15:36;;;;;;;27.52;22.30;;;;;;;8.44;100.00;162771.50;5071376;28;20051;-58
2023/04/10 06:18:01;;;;;;;31.85;24.75;;;;;;;8.33;100.00;162741.81;5071652;28;20055;-58
2023/04/10 06:20:26;;;;;;;35.78;24.70;;;;;;;8.61;100.00;162814.63;5069918;28;20049;-59
2023/04/10 06:22:52;;;;;;;34.63;24.83;;;;;;;8.72;100.00;162845.66;5071979;28;20078;-59
2023/04/10 06:25:17;;;;;;;28.73;22.05;;;;;;;8.76;100.00;162855.09;5071685;28;20037;-59
2023/04/10 06:27:43;;;;;;;36.55;25.88;;;;;;;8.67;100.00;162832.19;5071692;28;20025;-59
2023/04/10 06:30:09;;;;;;;29.02;23.98;;;;;;;8.75;100.00;162852.38;5071153;28;20051;-59
2023/04/10 06:32:34;;;;;;;32.60;25.02;;;;;;;9.01;100.00;162919.81;5072678;28;20028;-58
2023/04/10 06:35:00;;;;;;;28.83;21.77;;;;;;;9.00;100.00;162917.13;5069332;28;20689;-58
2023/04/10 06:37:28;;;;;;;29.27;24.35;;;;;;;9.05;100.00;162930.59;5072580;28;20028;-58
2023/04/10 06:40:01;;;;;;;30.75;23.63;;;;;;;8.97;100.00;162910.38;5070642;28;20045;-59
2023/04/10 06:42:26;;;;;;;33.83;24.63;;;;;;;9.05;100.00;162930.59;5069502;28;20044;-58
2023/04/10 06:44:52;;;;;;;27.73;21.27;;;;;;;9.03;100.00;162926.56;5070992;28;20102;-58
2023/04/10 06:47:17;;;;;;;35.15;25.85;;;;;;;9.01;100.00;162919.81;5072265;28;20025;-58
2023/04/10 06:49:42;;;;;;;27.45;20.33;;;;;;;8.91;100.00;162892.81;5069264;28;20045;-58
2023/04/10 06:52:10;;;;;;;31.23;23.48;;;;;;;8.95;100.00;162903.66;5072023;28;20013;-59
2023/04/10 06:54:35;;;;;;;33.13;25.20;;;;;;;9.05;100.00;162930.59;5070854;28;20036;-58
2023/04/10 06:57:00;;;;;;;30.08;22.75;;;;;;;9.20;100.00;162971.03;5070993;28;20024;-58
2023/04/10 06:59:26;;;;;;;33.42;23.63;;;;;;;9.35;100.00;163008.81;5070660;28;20040;-58
2023/04/10 07:01:51;;;;;;;32.20;22.67;;;;;;;9.36;100.00;163011.50;5072077;28;20025;-59
2023/04/10 07:04:16;;;;;;;30.00;23.20;;;;;;;9.51;100.00;163050.66;5068794;28;20499;-59
2023/04/10 07:06:42;;;;;;;28.92;22.35;;;;;;;9.72;100.00;163105.91;5072243;28;20093;-58
2023/04/10 07:09:07;;;;;;;30.33;21.02;;;;;;;9.77;100.00;163119.44;5070532;28;20028;-59
2023/04/10 07:11:32;;;;;;;23.42;19.10;;;;;;;9.87;100.00;163143.69;5070934;28;20025;-58
2023/04/10 07:13:58;;;;;;;24.02;19.95;;;;;;;9.99;100.00;163176.09;5070023;28;20025;-59
2023/04/10 07:16:24;;;;;;;25.58;19.38;;;;;;;10.09;100.00;163201.75;5071325;28;20066;-59
2023/04/10 07:18:49;;;;;;;30.30;21.92;;;;;;;10.00;100.00;163178.81;5070360;28;20020;-59
2023/04/10 07:21:14;;;;;;;28.00;19.15;;;;;;;9.98;100.00;163173.41;5070377;28;20057;-65
2023/04/10 07:23:40;;;;;;;23.30;16.98;;;;;;;10.17;100.00;163223.34;5071904;28;20021;-59
2023/04/10 07:26:05;;;;;;;26.20;19.50;;;;;;;10.46;100.00;163300.28;5068519;28;20138;-59
2023/04/10 07:28:32;;;;;;;26.63;21.17;;;;;;;10.76;100.00;163377.25;5071698;28;20029;-59
2023/04/10 07:30:57;;;;;;;22.23;16.33;;;;;;;11.30;100.00;163519.00;5069962;28;20040;-60
2023/04/10 07:33:23;;;;;;;20.70;17.15;;;;;;;11.79;100.00;163645.97;5070182;28;20074;-60
2023/04/10 07:35:48;;;;;;;20.60;15.95;;;;;;;11.95;100.00;163689.16;5070370;28;20037;-59
2023/04/10 07:38:13;;;;;;;23.13;18.13;;;;;;;12.22;100.00;163759.50;5070655;28;20032;-60
2023/04/10 07:40:39;;;;;;;22.13;16.00;;;;;;;12.55;100.00;163845.97;5068603;28;20033;-59
2023/04/10 07:43:04;;;;;;;19.90;17.10;;;;;;;12.54;100.00;163844.63;5069676;28;20031;-59
2023/04/10 07:45:30;;;;;;;21.15;16.45;;;;;;;12.38;100.00;163802.75;5069879;28;20036;-58
2023/04/10 07:47:57;;;;;;;19.80;13.80;;;;;;;12.29;100.00;163778.41;5069423;28;20498;-58
2023/04/10 07:50:22;;;;;;;17.63;14.30;;;;;;;12.92;100.00;163943.28;5069122;28;20076;-58
2023/04/10 07:52:48;;;;;;;18.23;14.60;;;;;;;13.69;100.00;164143.44;5069576;28;20028;-59
2023/04/10 07:55:14;;;;;;;19.52;16.98;;;;;;;14.32;100.00;164309.81;5067346;28;20036;-58
2023/04/10 07:57:39;;;;;;;19.08;15.38;;;;;;;14.59;100.00;164381.53;5070480;28;20028;-58
2023/04/10 08:00:06;;;;;;;16.83;13.10;;;;;;;14.82;100.00;164441.13;5068518;28;20125;-58
2023/04/10 08:02:31;;;;;;;18.08;12.88;;;;;;;14.38;100.00;164324.72;5070030;28;20056;-58
2023/04/10 08:04:56;;;;;;;17.15;13.27;;;;;;;14.06;100.00;164240.81;5068889;28;20040;-58
2023/04/10 08:07:22;;;;;;;17.50;13.10;;;;;;;13.92;100.00;164205.66;5071172;28;20050;-58
2023/04/10 08:09:47;;;;;;;13.20;11.40;;;;;;;14.37;100.00;164322.00;5069130;28;20037;-58
2023/04/10 08:12:13;;;;;;;14.88;12.50;;;;;;;14.37;100.00;164322.00;5070890;28;20024;-59
2023/04/10 08:14:38;;;;;;;15.52;12.82;;;;;;;14.33;100.00;164311.19;5069525;28;20032;-58
2023/04/10 08:17:03;;;;;;;15.70;11.88;;;;;;;14.57;100.00;164376.09;5070446;28;20028;-59
2023/04/10 08:19:29;;;;;;;13.70;10.68;;;;;;;14.39;100.00;164328.75;5069501;28;20035;-58
2023/04/10 08:21:54;;;;;;;13.48;10.60;;;;;;;14.43;100.00;164338.22;5070506;28;20051;-58
2023/04/10 08:24:21;;;;;;;17.33;12.40;;;;;;;14.66;100.00;164397.81;5069066;28;20271;-58
2023/04/10 08:26:47;;;;;;;15.43;11.52;;;;;;;14.87;100.00;164454.63;5070830;28;20383;-58
2023/04/10 08:29:12;;;;;;;14.60;11.50;;;;;;;14.77;100.00;164427.59;5069006;28;20032;-58
2023/04/10 08:31:37;;;;;;;14.20;10.20;;;;;;;14.42;100.00;164335.50;5070396;28;20028;-58
2023/04/10 08:34:03;;;;;;;13.68;9.50;;;;;;;14.44;100.00;164342.25;5069132;28;20033;-58
2023/04/10 08:36:30;;;;;;;12.43;10.10;;;;;;;14.11;100.00;164254.38;5070682;28;20430;-58
2023/04/10 08:38:55;;;;;;;9.02;8.02;;;;;;;14.44;100.00;164340.94;5069851;28;20020;-58
2023/04/10 08:41:21;;;;;;;8.10;7.30;;;;;;;14.06;100.00;164240.81;5069305;28;20095;-59
2023/04/10 08:43:48;;;;;;;8.50;6.95;;;;;;;13.62;100.00;164127.22;5070549;28;20024;-59
2023/04/10 08:46:14;;;;;;;11.20;7.40;;;;;;;13.60;100.00;164121.78;5068687;28;20152;-58
2023/04/10 08:49:04;;;;;;;9.05;7.75;;;;;;;13.24;100.00;164027.09;5070502;28;20044;-58
2023/04/10 08:51:41;;;;;;;9.80;8.45;;;;;;;13.35;100.00;164054.16;5069261;28;20040;-58
2023/04/10 08:54:20;;;;;;;12.65;9.23;;;;;;;13.10;100.00;163989.25;5068524;28;20369;-58
2023/04/10 08:56:49;;;;;;;8.90;7.30;;;;;;;13.19;100.00;164013.59;5070555;28;20067;-59
2023/04/10 08:59:15;;;;;;;13.05;11.00;;;;;;;13.19;100.00;164013.59;5068779;28;20043;-58
2023/04/10 09:01:40;;;;;;;15.27;11.23;;;;;;;13.53;100.00;164102.88;5069853;28;20059;-59
2023/04/10 09:04:05;;;;;;;11.52;7.82;;;;;;;13.96;100.00;164216.47;5068747;28;20425;-58
2023/04/10 09:06:31;;;;;;;9.68;8.00;;;;;;;14.44;100.00;164342.25;5070214;28;20024;-58
2023/04/10 09:08:58;;;;;;;8.40;7.60;;;;;;;14.72;100.00;164415.41;5069822;28;20016;-58
2023/04/10 09:11:24;;;;;;;7.45;6.38;;;;;;;15.16;100.00;164530.41;5069119;28;20123;-58
2023/04/10 09:13:49;;;;;;;7.57;6.55;;;;;;;15.21;100.00;164542.59;5070272;28;20464;-59
2023/04/10 09:16:15;;;;;;;6.35;5.75;;;;;;;15.40;100.00;164592.69;5068490;28;20067;-58
2023/04/10 09:18:50;;;;;;;6.63;5.68;;;;;;;15.79;100.00;164695.59;5070160;28;20020;-59
2023/04/10 09:21:18;;;;;;;6.65;5.82;;;;;;;16.04;100.00;164759.28;5068571;28;20423;-59
2023/04/10 09:23:45;;;;;;;6.03;4.80;;;;;;;15.75;100.00;164684.75;5070126;28;20030;-59
2023/04/10 09:26:22;;;;;;;7.35;6.60;;;;;;;15.64;100.00;164654.97;5068560;28;20254;-58
2023/04/10 09:28:58;;;;;;;6.25;5.65;;;;;;;15.34;100.00;164576.47;5070093;28;20024;-58
2023/04/10 09:31:29;;;;;;;10.73;6.28;;;;;;;15.27;100.00;164557.50;5068571;28;20086;-59
2023/04/10 09:34:07;;;;;;;6.80;5.63;;;;;;;15.25;100.00;164553.47;5069986;28;20029;-59
2023/04/10 09:36:33;;;;;;;6.03;5.43;;;;;;;15.38;100.00;164587.25;5068730;28;20054;-58
2023/04/10 09:38:58;;;;;;;17.42;8.02;;;;;;;15.61;100.00;164646.84;5068017;28;20021;-58
2023/04/10 09:41:23;;;;;;;6.07;4.95;;;;;;;15.95;100.00;164736.28;5069745;28;20024;-59
2023/04/10 09:44:03;;;;;;;5.40;4.97;;;;;;;16.04;100.00;164759.28;5070207;28;20051;-58
2023/04/10 09:46:29;;;;;;;6.68;5.47;;;;;;;16.34;100.00;164839.22;5068445;28;20044;-58
2023/04/10 09:49:00;;;;;;;8.68;5.20;;;;;;;16.18;100.00;164798.56;5069576;28;20420;-58
2023/04/10 09:51:30;;;;;;;7.85;5.50;;;;;;;16.48;100.00;164875.75;5068618;28;20036;-58
2023/04/10 09:53:55;;;;;;;6.13;5.50;;;;;;;16.26;100.00;164817.53;5069347;28;20025;-59
2023/04/10 09:56:22;;;;;;;5.22;4.72;;;;;;;16.25;100.00;164816.16;5068425;28;20041;-58
2023/04/10 09:58:48;;;;;;;13.63;5.72;;;;;;;16.16;100.00;164793.16;5069736;28;20028;-59
2023/04/10 10:01:14;;;;;;;5.00;4.40;;;;;;;16.28;100.00;164824.31;5067898;28;20037;-58
2023/04/10 10:03:40;;;;;;;4.72;4.30;;;;;;;15.93;100.00;164730.84;5069793;28;20017;-59
2023/04/10 10:06:06;;;;;;;6.53;5.90;;;;;;;15.53;100.00;164626.56;5068112;28;20037;-59
2023/04/10 10:08:33;;;;;;;5.50;4.65;;;;;;;15.12;100.00;164519.59;5069813;28;20036;-59
2023/04/10 10:11:02;;;;;;;6.20;5.60;;;;;;;15.17;100.00;164533.13;5070538;28;20137;-59
2023/04/10 10:13:34;;;;;;;6.57;4.45;;;;;;;15.26;100.00;164554.78;5073292;28;20028;-59
2023/04/10 10:16:07;;;;;;;5.05;4.47;;;;;;;15.28;100.00;164560.22;5071431;28;20106;-59
2023/04/10 10:18:44;;;;;;;7.03;4.35;;;;;;;15.59;100.00;164641.47;5073451;28;20035;-58
2023/04/10 10:21:12;;;;;;;5.03;4.53;;;;;;;15.86;100.00;164714.59;5071642;28;20060;-58
2023/04/10 10:23:38;;;;;;;4.68;3.92;;;;;;;15.95;100.00;164736.28;5073072;28;20285;-59
2023/04/10 10:26:05;;;;;;;5.82;4.82;;;;;;;15.96;100.00;164739.00;5071235;28;20040;-58
2023/04/10 10:28:33;;;;;;;5.40;4.38;;;;;;;16.01;100.00;164752.53;5072940;28;20097;-58
2023/04/10 10:30:59;;;;;;;5.38;4.88;;;;;;;15.94;100.00;164734.91;5071168;28;20064;-58
2023/04/10 10:33:25;;;;;;;5.25;4.75;;;;;;;15.89;100.00;164720.03;5073054;28;20298;-59
2023/04/10 10:35:50;;;;;;;6.25;5.20;;;;;;;15.74;100.00;164682.06;5071369;28;20364;-59
2023/04/10 10:38:17;;;;;;;6.35;4.95;;;;;;;15.79;100.00;164694.22;5072507;28;20533;-58
2023/04/10 10:40:52;;;;;;;5.72;5.13;;;;;;;15.97;100.00;164741.72;5071260;28;20102;-58
2023/04/10 10:43:34;;;;;;;5.40;4.32;;;;;;;16.16;100.00;164791.75;5056831;28;20455;-58
2023/04/10 10:46:03;;;;;;;5.25;4.63;;;;;;;16.10;100.00;164775.53;5051019;28;20511;-58
2023/04/10 10:48:28;;;;;;;7.20;5.07;;;;;;;16.09;100.00;164774.19;5052632;28;20361;-58
2023/04/10 10:50:59;;;;;;;8.27;5.53;;;;;;;16.09;100.00;164774.19;5051094;28;20040;-59
2023/04/10 10:53:43;;;;;;;8.10;5.07;;;;;;;15.91;100.00;164725.41;5052233;28;20048;-58
2023/04/10 10:56:18;;;;;;;7.65;5.53;;;;;;;15.65;100.00;164657.69;5051011;28;20126;-59
2023/04/10 10:58:47;;;;;;;5.20;4.65;;;;;;;15.54;100.00;164630.59;5052564;28;20499;-58
2023/04/10 11:01:13;;;;;;;6.78;5.13;;;;;;;15.36;100.00;164581.88;5050308;28;20037;-59
2023/04/10 11:03:38;;;;;;;6.95;5.28;;;;;;;15.43;100.00;164599.47;5052615;28;20029;-59
2023/04/10 11:06:07;;;;;;;6.57;4.63;;;;;;;15.44;100.00;164603.56;5050709;28;20044;-59
2023/04/10 11:08:34;;;;;;;6.35;5.10;;;;;;;15.32;100.00;164572.41;5051790;28;20075;-58